Time;durP1;ratioP1;P1;durP2;ratioP2;P2;SDS_P1;SDS_P2;PMS_P1;PMS_P2;Temp;Humidity;BMP_temperature;BMP_pressure;BME280_temperature;BME280_humidity;BME280_pressure;Samples;Min_cycle;Max_cycle;Signal;HPM_P1;HPM_P2
2020/12/04 00:01:08;;;;;;;0.77;0.00;;;7.10;95.40;;;;;;5033841;28;20114;-68
2020/12/04 00:03:33;;;;;;;2.72;0.00;;;7.10;95.60;;;;;;5033357;28;20187;-68
2020/12/04 00:05:59;;;;;;;0.30;0.00;;;6.70;95.50;;;;;;5033853;28;20048;-68
2020/12/04 00:08:25;;;;;;;0.85;0.00;;;7.00;95.40;;;;;;5033976;28;20064;-68
2020/12/04 00:10:51;;;;;;;1.48;0.05;;;7.10;95.40;;;;;;5033891;28;20493;-68
2020/12/04 00:13:17;;;;;;;0.55;0.00;;;6.80;95.40;;;;;;5033641;28;20052;-68
2020/12/04 00:15:42;;;;;;;0.50;0.00;;;6.70;95.40;;;;;;5033604;28;20037;-68
2020/12/04 00:18:08;;;;;;;0.52;0.00;;;6.60;95.30;;;;;;5033742;28;20142;-68
2020/12/04 00:20:34;;;;;;;0.50;0.00;;;6.80;95.40;;;;;;5033553;28;20042;-68
2020/12/04 00:23:00;;;;;;;1.63;0.00;;;6.90;95.30;;;;;;5033640;28;20038;-68
2020/12/04 00:25:26;;;;;;;2.05;0.17;;;6.60;95.10;;;;;;5033675;28;20515;-68
2020/12/04 00:27:52;;;;;;;2.05;0.20;;;6.90;95.10;;;;;;5033791;28;20041;-68
2020/12/04 00:30:17;;;;;;;3.10;0.10;;;6.80;95.10;;;;;;5033346;28;20029;-68
2020/12/04 00:32:43;;;;;;;1.25;0.15;;;6.50;95.00;;;;;;5036762;28;20061;-68
2020/12/04 00:35:09;;;;;;;0.98;0.10;;;6.40;94.90;;;;;;5021963;28;20045;-68
2020/12/04 00:37:35;;;;;;;0.52;0.05;;;6.30;94.90;;;;;;5017886;28;20050;-68
2020/12/04 00:40:01;;;;;;;1.20;0.00;;;7.00;95.10;;;;;;5017674;28;20040;-68
2020/12/04 00:42:26;;;;;;;0.70;0.10;;;6.90;95.40;;;;;;5017824;28;20183;-68
2020/12/04 00:44:52;;;;;;;1.42;0.00;;;6.40;95.30;;;;;;5017617;28;20042;-68
2020/12/04 00:47:18;;;;;;;1.77;0.00;;;6.00;95.30;;;;;;5017882;28;20038;-68
2020/12/04 00:49:44;;;;;;;1.05;0.00;;;6.50;95.40;;;;;;5017327;28;20026;-68
2020/12/04 00:52:10;;;;;;;4.18;0.10;;;6.50;95.40;;;;;;5018015;28;20053;-68
2020/12/04 00:54:36;;;;;;;3.40;0.10;;;6.20;95.40;;;;;;5017650;28;20042;-68
2020/12/04 00:57:02;;;;;;;0.73;0.00;;;6.50;95.50;;;;;;5017657;28;20464;-68
2020/12/04 00:59:28;;;;;;;4.38;0.10;;;6.70;95.60;;;;;;5017475;28;20440;-68
2020/12/04 01:01:53;;;;;;;2.83;0.10;;;6.80;95.60;;;;;;5017225;28;20049;-68
2020/12/04 01:04:19;;;;;;;2.95;0.10;;;6.40;95.50;;;;;;5017384;28;20045;-68
2020/12/04 01:06:45;;;;;;;1.48;0.03;;;6.60;95.50;;;;;;5017218;28;20050;-68
2020/12/04 01:09:11;;;;;;;3.30;0.00;;;6.70;95.60;;;;;;5016951;28;20401;-68
2020/12/04 01:11:36;;;;;;;0.43;0.00;;;6.90;95.60;;;;;;5016980;28;20042;-68
2020/12/04 01:14:02;;;;;;;3.63;0.03;;;6.30;95.50;;;;;;5016925;28;20513;-68
2020/12/04 01:16:28;;;;;;;1.52;0.00;;;6.40;95.60;;;;;;5016882;28;20041;-68
2020/12/04 01:18:54;;;;;;;2.58;0.03;;;6.30;95.50;;;;;;5016966;28;20038;-68
2020/12/04 01:21:20;;;;;;;2.97;0.20;;;6.70;95.60;;;;;;5016762;28;20103;-68
2020/12/04 01:23:46;;;;;;;3.40;0.20;;;6.10;95.50;;;;;;5017170;28;20041;-68
2020/12/04 01:26:12;;;;;;;3.72;0.20;;;6.70;95.70;;;;;;5016728;28;20030;-68
2020/12/04 01:28:37;;;;;;;4.57;0.20;;;6.40;95.70;;;;;;5016376;28;20042;-68
2020/12/04 01:31:03;;;;;;;1.75;0.10;;;6.60;95.80;;;;;;5016972;28;20172;-68
2020/12/04 01:33:29;;;;;;;2.67;0.20;;;6.50;95.80;;;;;;5016317;28;20116;-68
2020/12/04 01:35:55;;;;;;;2.97;0.30;;;6.20;95.70;;;;;;5016739;28;20045;-68
2020/12/04 01:38:21;;;;;;;3.65;0.50;;;6.70;95.80;;;;;;5016657;28;20049;-68
2020/12/04 01:40:46;;;;;;;6.63;1.05;;;6.50;95.90;;;;;;5016655;28;20517;-68
2020/12/04 01:43:12;;;;;;;7.07;1.10;;;6.60;95.80;;;;;;5015888;28;20125;-68
2020/12/04 01:45:38;;;;;;;3.22;1.00;;;6.50;95.80;;;;;;5016420;28;20129;-68
2020/12/04 01:48:05;;;;;;;4.38;0.98;;;6.30;95.50;;;;;;5016832;28;20078;-68
2020/12/04 01:50:31;;;;;;;8.98;0.73;;;6.30;95.60;;;;;;5016417;28;20038;-68
2020/12/04 01:53:01;;;;;;;6.05;0.57;;;6.20;95.50;;;;;;5015973;28;20057;-68
2020/12/04 01:55:27;;;;;;;7.95;0.68;;;6.10;95.50;;;;;;5016430;28;20038;-68
2020/12/04 01:57:54;;;;;;;5.30;0.45;;;6.50;95.30;;;;;;5015976;28;20125;-68
2020/12/04 02:00:21;;;;;;;4.80;0.35;;;6.50;95.40;;;;;;5016203;28;20040;-68
2020/12/04 02:02:49;;;;;;;3.53;0.50;;;6.60;95.40;;;;;;5016464;28;20042;-68
2020/12/04 02:05:16;;;;;;;5.07;0.50;;;6.50;95.40;;;;;;5016073;28;20132;-68
2020/12/04 02:08:15;;;;;;;5.88;0.60;;;6.50;95.30;;;;;;5015948;28;20342;-68
2020/12/04 02:10:54;;;;;;;4.18;0.30;;;7.70;95.70;;;;;;5016133;28;20061;-68
2020/12/04 02:13:20;;;;;;;4.78;0.38;;;6.20;95.00;;;;;;5015926;28;20516;-68
2020/12/04 02:15:46;;;;;;;6.25;0.60;;;6.50;95.40;;;;;;5016169;28;20040;-68
2020/12/04 02:18:14;;;;;;;4.32;0.38;;;6.40;95.20;;;;;;5016204;28;20409;-68
2020/12/04 02:20:40;;;;;;;4.20;0.20;;;5.90;95.20;;;;;;5016175;28;20038;-68
2020/12/04 02:23:09;;;;;;;4.65;0.20;;;6.20;95.10;;;;;;5015981;28;20052;-68
2020/12/04 02:25:35;;;;;;;2.83;0.10;;;6.20;95.10;;;;;;5015797;28;20129;-68
2020/12/04 02:28:01;;;;;;;3.47;0.10;;;6.40;95.00;;;;;;5015373;28;20128;-68
2020/12/04 02:30:33;;;;;;;3.47;0.30;;;5.90;94.90;;;;;;5015975;28;20345;-68
2020/12/04 02:32:59;;;;;;;1.65;0.28;;;6.60;95.40;;;;;;5015262;28;20054;-68
2020/12/04 02:35:25;;;;;;;2.63;0.25;;;5.80;95.00;;;;;;5015568;28;20038;-68
2020/12/04 02:37:52;;;;;;;5.07;0.50;;;5.90;94.90;;;;;;5015528;28;20068;-68
2020/12/04 02:40:19;;;;;;;6.07;0.55;;;5.90;94.90;;;;;;5015556;28;20100;-68
2020/12/04 02:42:45;;;;;;;4.63;0.32;;;6.40;95.10;;;;;;5015326;28;20100;-68
2020/12/04 02:45:12;;;;;;;4.45;0.40;;;5.60;94.80;;;;;;5015349;28;20087;-68
2020/12/04 02:47:39;;;;;;;5.28;0.30;;;5.90;94.90;;;;;;5015203;28;20489;-68
2020/12/04 02:50:05;;;;;;;2.75;0.20;;;6.20;95.00;;;;;;5015015;28;20034;-68
2020/12/04 02:52:31;;;;;;;4.07;0.13;;;6.30;94.90;;;;;;5015096;28;20072;-68
2020/12/04 02:54:57;;;;;;;5.65;0.35;;;5.70;94.80;;;;;;5014779;28;20044;-68
2020/12/04 02:57:23;;;;;;;4.05;0.13;;;6.00;94.90;;;;;;5015394;28;20041;-68
2020/12/04 02:59:48;;;;;;;4.28;0.30;;;5.40;94.70;;;;;;5014944;28;20229;-68
2020/12/04 03:02:14;;;;;;;5.43;0.40;;;5.90;94.90;;;;;;5014889;28;20049;-68
2020/12/04 03:04:40;;;;;;;9.05;0.40;;;5.40;94.80;;;;;;5014679;28;20038;-68
2020/12/04 03:07:06;;;;;;;3.65;0.30;;;5.80;94.80;;;;;;5015118;28;20515;-68
2020/12/04 03:09:32;;;;;;;6.95;0.50;;;6.00;94.80;;;;;;5015280;28;20049;-68
2020/12/04 03:11:58;;;;;;;2.78;0.30;;;6.10;95.00;;;;;;5014764;28;20460;-68
2020/12/04 03:14:25;;;;;;;5.40;0.30;;;5.60;94.80;;;;;;5014908;28;20041;-68
2020/12/04 03:16:51;;;;;;;3.13;0.28;;;5.90;94.80;;;;;;5015176;28;20042;-68
2020/12/04 03:19:17;;;;;;;4.45;0.47;;;5.70;94.70;;;;;;5015118;28;20120;-68
2020/12/04 03:21:42;;;;;;;7.10;1.02;;;5.60;94.60;;;;;;5015079;28;20133;-68
2020/12/04 03:24:09;;;;;;;5.25;0.98;;;5.80;94.80;;;;;;5015081;28;20091;-68
2020/12/04 03:26:34;;;;;;;4.18;1.35;;;5.80;94.70;;;;;;5014842;28;20038;-68
2020/12/04 03:29:00;;;;;;;5.07;1.33;;;5.20;94.60;;;;;;5014680;28;20038;-68
2020/12/04 03:31:26;;;;;;;6.78;1.55;;;5.90;94.90;;;;;;5014739;28;20046;-68
2020/12/04 03:33:52;;;;;;;5.35;1.48;;;5.90;95.00;;;;;;5015353;28;20058;-68
2020/12/04 03:36:18;;;;;;;7.57;1.30;;;5.80;94.80;;;;;;5015192;28;20489;-68
2020/12/04 03:38:44;;;;;;;9.07;1.10;;;5.40;94.60;;;;;;5015270;28;20173;-68
2020/12/04 03:41:11;;;;;;;4.43;0.90;;;5.70;94.80;;;;;;5014835;28;20037;-68
2020/12/04 03:43:40;;;;;;;4.80;0.80;;;5.40;94.80;;;;;;5014850;28;20037;-68
2020/12/04 03:46:10;;;;;;;4.88;0.80;;;6.00;95.10;;;;;;5015079;28;20052;-68
2020/12/04 03:48:37;;;;;;;5.85;0.65;;;4.90;94.90;;;;;;5014609;28;20091;-68
2020/12/04 03:51:03;;;;;;;6.80;0.80;;;5.50;95.00;;;;;;5014333;28;20443;-68
2020/12/04 03:53:29;;;;;;;4.55;0.80;;;5.30;94.80;;;;;;5014848;28;20054;-68
2020/12/04 03:55:55;;;;;;;7.40;1.10;;;5.50;94.90;;;;;;5014684;28;20077;-68
2020/12/04 03:58:21;;;;;;;4.50;0.88;;;5.60;94.80;;;;;;5014513;28;20050;-68
2020/12/04 04:00:47;;;;;;;6.85;0.80;;;5.70;94.90;;;;;;5014580;28;20501;-68
2020/12/04 04:03:12;;;;;;;5.65;1.00;;;5.70;95.00;;;;;;5015037;28;20413;-68
2020/12/04 04:05:38;;;;;;;4.55;0.88;;;4.80;94.70;;;;;;5014556;28;20116;-68
2020/12/04 04:08:04;;;;;;;6.35;0.73;;;5.00;94.70;;;;;;5014366;28;20049;-68
2020/12/04 04:10:30;;;;;;;4.50;0.50;;;5.90;95.10;;;;;;5014527;28;20069;-68
2020/12/04 04:12:56;;;;;;;4.10;0.60;;;5.60;94.90;;;;;;5014281;28;20046;-68
2020/12/04 04:15:22;;;;;;;4.78;0.45;;;5.80;95.00;;;;;;5014490;28;20045;-68
2020/12/04 04:17:48;;;;;;;5.95;0.50;;;5.40;94.90;;;;;;5014627;28;20448;-68
2020/12/04 04:20:14;;;;;;;3.15;0.47;;;5.70;94.90;;;;;;5014307;28;20124;-68
2020/12/04 04:22:40;;;;;;;2.70;0.30;;;4.80;94.60;;;;;;5014486;28;20079;-68
2020/12/04 04:25:06;;;;;;;2.33;0.30;;;5.50;94.80;;;;;;5014417;28;20040;-68
2020/12/04 04:27:32;;;;;;;4.32;0.17;;;5.20;94.70;;;;;;5014313;28;20137;-68
2020/12/04 04:29:57;;;;;;;5.15;0.10;;;5.50;94.80;;;;;;5014168;28;20401;-68
2020/12/04 04:32:23;;;;;;;4.35;0.10;;;5.50;94.90;;;;;;5013867;28;20050;-68
2020/12/04 04:34:49;;;;;;;3.85;0.10;;;5.60;94.80;;;;;;5013914;28;20034;-68
2020/12/04 04:37:15;;;;;;;9.27;0.30;;;5.40;94.80;;;;;;5013515;28;20081;-68
2020/12/04 04:39:43;;;;;;;3.50;0.20;;;5.30;94.50;;;;;;5013699;28;20038;-68
2020/12/04 04:42:10;;;;;;;3.50;0.20;;;5.30;94.50;;;;;;5013627;28;20571;-68
2020/12/04 04:44:36;;;;;;;3.85;0.20;;;5.50;94.70;;;;;;5013697;28;20060;-68
2020/12/04 04:47:06;;;;;;;5.07;0.20;;;5.40;94.50;;;;;;5014128;28;20045;-68
2020/12/04 04:49:36;;;;;;;9.13;0.17;;;5.60;94.30;;;;;;5013954;28;20096;-68
2020/12/04 04:52:05;;;;;;;2.50;0.10;;;4.90;94.60;;;;;;5013472;28;20048;-67
2020/12/04 04:54:35;;;;;;;4.55;0.10;;;4.70;94.50;;;;;;5013998;28;20065;-67
2020/12/04 04:57:02;;;;;;;3.55;0.10;;;5.40;94.70;;;;;;5013534;28;20124;-67
2020/12/04 04:59:28;;;;;;;4.07;0.28;;;5.20;94.60;;;;;;5013813;28;20040;-67
2020/12/04 05:01:54;;;;;;;4.00;0.10;;;5.20;94.70;;;;;;5013777;28;20128;-68
2020/12/04 05:04:19;;;;;;;4.63;0.10;;;5.40;94.50;;;;;;5013388;28;20045;-69
2020/12/04 05:06:45;;;;;;;2.85;0.10;;;5.20;94.40;;;;;;5013552;28;20041;-69
2020/12/04 05:09:28;;;;;;;3.33;0.10;;;5.50;94.50;;;;;;5013835;28;20113;-68
2020/12/04 05:11:59;;;;;;;3.72;0.10;;;5.30;94.20;;;;;;5013730;28;20132;-69
2020/12/04 05:14:25;;;;;;;6.45;0.20;;;5.70;94.90;;;;;;5023644;28;20042;-68
2020/12/04 05:16:57;;;;;;;4.47;0.10;;;4.90;94.60;;;;;;5013703;28;20038;-69
2020/12/04 05:19:36;;;;;;;0.85;0.05;;;5.40;94.90;;;;;;5017313;28;20033;-69
2020/12/04 05:22:18;;;;;;;2.53;0.10;;;5.60;95.10;;;;;;5017283;28;20517;-69
2020/12/04 05:24:45;;;;;;;4.47;0.10;;;4.90;95.20;;;;;;5017193;28;20033;-69
2020/12/04 05:27:40;;;;;;;4.38;0.10;;;4.90;94.60;;;;;;5016983;28;20068;-69
2020/12/04 05:30:06;;;;;;;4.22;0.17;;;5.60;95.50;;;;;;5012532;28;20037;-69
2020/12/04 05:32:32;;;;;;;4.80;0.22;;;5.80;95.00;;;;;;5016430;28;20064;-69
2020/12/04 05:35:09;;;;;;;2.90;0.20;;;5.30;94.70;;;;;;5017186;28;20034;-68
2020/12/04 05:37:35;;;;;;;4.85;0.10;;;5.20;94.80;;;;;;5017172;28;20046;-69
2020/12/04 05:40:01;;;;;;;4.40;0.22;;;5.40;94.80;;;;;;5017220;28;20037;-69
2020/12/04 05:42:35;;;;;;;4.40;0.10;;;5.40;94.70;;;;;;5017052;28;20045;-68
2020/12/04 05:45:03;;;;;;;3.63;0.10;;;5.60;95.20;;;;;;5017390;28;20042;-68
2020/12/04 05:47:45;;;;;;;3.90;0.10;;;5.80;94.90;;;;;;5017519;28;20053;-69
2020/12/04 05:50:13;;;;;;;1.98;0.10;;;5.70;95.30;;;;;;5017261;28;20477;-69
2020/12/04 05:52:39;;;;;;;2.78;0.10;;;5.20;94.90;;;;;;5016660;28;20072;-69
2020/12/04 05:55:10;;;;;;;4.55;0.10;;;5.30;94.80;;;;;;5016192;28;20034;-69
2020/12/04 05:57:52;;;;;;;4.20;0.30;;;5.30;94.70;;;;;;5016199;28;20184;-69
2020/12/04 06:00:19;;;;;;;4.88;0.20;;;5.70;95.70;;;;;;5016859;28;20046;-69
2020/12/04 06:02:46;;;;;;;3.58;0.10;;;6.00;95.50;;;;;;5016766;28;20165;-69
2020/12/04 06:05:13;;;;;;;3.65;0.17;;;6.20;95.30;;;;;;5016497;28;20030;-69
2020/12/04 06:07:41;;;;;;;4.68;0.22;;;5.80;95.10;;;;;;5020202;28;20615;-69
2020/12/04 06:10:08;;;;;;;1.02;0.00;;;6.20;95.50;;;;;;5023058;28;20497;-68
2020/12/04 06:12:34;;;;;;;4.93;0.25;;;6.40;95.60;;;;;;5026932;28;20068;-69
2020/12/04 06:15:21;;;;;;;5.32;0.38;;;6.90;95.90;;;;;;5034892;28;20134;-69
2020/12/04 06:17:47;;;;;;;2.35;0.15;;;6.70;96.00;;;;;;5034625;28;20041;-69
2020/12/04 06:20:20;;;;;;;6.38;0.30;;;6.60;95.70;;;;;;5020583;28;20038;-68
2020/12/04 06:23:10;;;;;;;2.63;0.13;;;6.60;95.80;;;;;;5031154;28;20171;-68
2020/12/04 06:25:51;;;;;;;6.47;0.80;;;6.60;96.00;;;;;;5035551;28;20045;-68
2020/12/04 06:28:19;;;;;;;2.55;0.40;;;7.20;96.30;;;;;;5035037;28;20034;-69
2020/12/04 06:30:56;;;;;;;5.97;0.80;;;6.50;96.00;;;;;;5035182;28;20037;-68
2020/12/04 06:33:47;;;;;;;7.00;0.68;;;7.20;96.20;;;;;;5035581;28;20049;-69
2020/12/04 06:36:33;;;;;;;2.80;0.70;;;7.10;96.00;;;;;;5035315;28;20087;-69
2020/12/04 06:39:02;;;;;;;3.58;0.70;;;6.70;96.10;;;;;;5035421;28;20049;-69
2020/12/04 06:41:32;;;;;;;4.35;0.52;;;7.00;96.00;;;;;;5035104;28;20037;-70
2020/12/04 06:44:07;;;;;;;1.65;0.20;;;7.10;96.10;;;;;;5034883;28;20049;-69
2020/12/04 06:46:44;;;;;;;3.15;0.20;;;6.90;95.60;;;;;;5034903;28;20056;-69
2020/12/04 06:52:02;;;;;;;4.88;0.10;;;6.60;95.50;;;;;;5034859;28;20102;-69
2020/12/04 06:54:32;;;;;;;3.42;0.10;;;6.90;95.70;;;;;;5035063;28;20136;-69
2020/12/04 06:56:58;;;;;;;3.55;0.10;;;6.90;95.90;;;;;;5034993;28;20033;-68
2020/12/04 06:59:28;;;;;;;4.43;0.10;;;7.10;95.90;;;;;;5034865;28;20033;-69
2020/12/04 07:02:02;;;;;;;4.10;0.15;;;6.70;96.10;;;;;;5034881;28;20038;-69
2020/12/04 07:04:30;;;;;;;3.80;0.10;;;6.80;95.80;;;;;;5034799;28;20057;-69
2020/12/04 07:07:09;;;;;;;3.33;0.20;;;6.40;95.30;;;;;;5034723;28;20044;-69
2020/12/04 07:09:35;;;;;;;1.80;0.10;;;7.40;95.40;;;;;;5034871;28;20034;-69
2020/12/04 07:12:02;;;;;;;2.13;0.20;;;6.80;95.60;;;;;;5034634;28;20183;-69
2020/12/04 07:14:28;;;;;;;2.63;0.20;;;6.80;95.50;;;;;;5035142;28;20095;-69
2020/12/04 07:16:55;;;;;;;3.10;0.10;;;6.80;95.60;;;;;;5034630;28;20068;-69
2020/12/04 07:19:21;;;;;;;3.38;0.30;;;7.00;95.60;;;;;;5034109;28;20038;-68
2020/12/04 07:21:47;;;;;;;2.88;0.32;;;6.90;95.50;;;;;;5034822;28;20053;-68
2020/12/04 07:24:13;;;;;;;3.58;0.60;;;6.90;95.40;;;;;;5034589;28;20038;-69
2020/12/04 07:26:44;;;;;;;2.92;0.60;;;6.20;95.10;;;;;;5034316;28;20092;-69
2020/12/04 07:29:11;;;;;;;2.33;0.93;;;7.10;95.50;;;;;;5034705;28;20041;-69
2020/12/04 07:31:37;;;;;;;5.97;2.20;;;6.30;95.50;;;;;;5034022;28;20077;-68
2020/12/04 07:34:03;;;;;;;8.32;3.63;;;6.90;95.40;;;;;;5034598;28;20108;-68
2020/12/04 07:36:29;;;;;;;11.30;4.38;;;6.50;95.20;;;;;;5035187;28;20029;-68
2020/12/04 07:39:01;;;;;;;11.85;3.90;;;7.20;95.50;;;;;;5042139;28;20053;-68
2020/12/04 07:41:41;;;;;;;12.52;3.95;;;6.50;95.40;;;;;;5044164;28;20036;-69
2020/12/04 07:44:10;;;;;;;12.15;3.92;;;6.50;95.70;;;;;;5033969;28;20119;-68
2020/12/04 07:46:36;;;;;;;13.52;3.40;;;6.60;95.50;;;;;;5033917;28;20044;-68
2020/12/04 07:49:05;;;;;;;19.73;6.47;;;6.80;95.10;;;;;;5033810;28;20041;-69
2020/12/04 07:51:33;;;;;;;12.93;5.05;;;6.40;95.00;;;;;;5034048;28;20040;-69
2020/12/04 07:54:01;;;;;;;8.68;2.25;;;6.30;94.80;;;;;;5034198;28;20049;-69
2020/12/04 07:56:28;;;;;;;12.15;3.55;;;6.50;94.60;;;;;;5033781;28;20539;-69
2020/12/04 07:59:05;;;;;;;8.98;2.33;;;6.70;94.90;;;;;;5033728;28;20080;-68
2020/12/04 08:01:40;;;;;;;14.50;4.65;;;5.90;94.90;;;;;;5034425;28;20037;-68
2020/12/04 08:04:09;;;;;;;15.50;5.68;;;6.30;95.00;;;;;;5033497;28;20125;-69
2020/12/04 08:06:35;;;;;;;9.77;4.10;;;6.10;94.60;;;;;;5033804;28;20045;-69
2020/12/04 08:09:09;;;;;;;7.07;1.92;;;5.70;94.60;;;;;;5033736;28;20519;-69
2020/12/04 08:11:38;;;;;;;3.63;0.60;;;6.30;94.80;;;;;;5032446;28;20045;-69
2020/12/04 08:14:05;;;;;;;5.07;2.63;;;6.80;94.70;;;;;;5033372;28;20265;-69
2020/12/04 08:16:32;;;;;;;6.30;3.03;;;6.20;94.50;;;;;;5039689;28;20044;-69
2020/12/04 08:19:12;;;;;;;9.60;4.20;;;6.20;94.10;;;;;;5053351;28;20568;-69
2020/12/04 08:22:07;;;;;;;8.27;4.30;;;6.50;93.80;;;;;;5052961;28;20115;-69
2020/12/04 08:24:39;;;;;;;9.98;4.60;;;7.30;94.50;;;;;;5048392;28;20029;-69
2020/12/04 08:27:07;;;;;;;8.48;4.13;;;6.70;94.00;;;;;;5053522;28;20044;-69
2020/12/04 08:29:35;;;;;;;13.85;5.50;;;6.80;93.90;;;;;;5053120;28;20116;-69
2020/12/04 08:32:19;;;;;;;9.52;4.35;;;6.60;93.90;;;;;;5053001;28;20124;-69
2020/12/04 08:34:46;;;;;;;8.00;3.55;;;6.60;93.30;;;;;;5053133;28;20060;-69
2020/12/04 08:37:13;;;;;;;6.38;3.10;;;6.80;93.90;;;;;;5051930;28;20041;-69
2020/12/04 08:39:40;;;;;;;16.52;8.30;;;7.10;93.90;;;;;;5052798;28;20167;-69
2020/12/04 08:42:18;;;;;;;11.48;5.88;;;6.70;93.90;;;;;;5041426;28;20052;-69
2020/12/04 08:45:05;;;;;;;5.68;2.85;;;7.20;94.40;;;;;;5035294;28;20034;-69
2020/12/04 08:47:44;;;;;;;3.97;2.20;;;7.80;94.00;;;;;;5038769;28;20064;-69
2020/12/04 08:50:18;;;;;;;3.92;0.82;;;8.60;94.00;;;;;;5033143;28;20045;-69
2020/12/04 08:52:48;;;;;;;0.83;0.20;;;9.00;93.70;;;;;;5037755;28;20040;-69
2020/12/04 08:55:17;;;;;;;2.22;0.20;;;10.30;93.20;;;;;;5048251;28;20346;-69
2020/12/04 08:57:44;;;;;;;2.05;0.32;;;11.10;92.90;;;;;;5057143;28;20516;-69
2020/12/04 09:00:12;;;;;;;8.10;4.30;;;12.30;92.50;;;;;;5057028;28;20404;-69
2020/12/04 09:02:39;;;;;;;5.70;2.17;;;14.00;92.10;;;;;;5037200;28;20050;-69
2020/12/04 09:05:14;;;;;;;1.60;0.30;;;12.80;90.80;;;;;;5017261;28;20390;-69
2020/12/04 09:07:40;;;;;;;0.98;0.10;;;12.80;90.40;;;;;;5017068;28;20111;-69
2020/12/04 09:10:08;;;;;;;3.13;0.60;;;12.70;90.10;;;;;;5017092;28;20116;-69
2020/12/04 09:12:35;;;;;;;1.88;0.30;;;12.50;90.00;;;;;;5016978;28;20058;-69
2020/12/04 09:15:01;;;;;;;3.47;0.47;;;13.20;89.10;;;;;;5017281;28;20034;-69
2020/12/04 09:17:27;;;;;;;3.08;0.35;;;13.30;88.40;;;;;;5016908;28;20087;-69
2020/12/04 09:19:53;;;;;;;1.77;0.10;;;13.40;87.30;;;;;;5016960;28;20038;-68
2020/12/04 09:22:19;;;;;;;2.50;0.20;;;13.20;86.80;;;;;;5016546;28;20041;-68
2020/12/04 09:24:45;;;;;;;0.80;0.20;;;13.60;87.20;;;;;;5016725;28;20128;-69
2020/12/04 09:27:11;;;;;;;0.75;0.20;;;13.50;87.70;;;;;;5015963;28;20129;-69
2020/12/04 09:29:38;;;;;;;1.60;0.00;;;13.40;87.40;;;;;;5016793;28;20037;-69
2020/12/04 09:32:16;;;;;;;2.88;0.10;;;12.90;87.90;;;;;;5016513;28;20085;-69
2020/12/04 09:34:44;;;;;;;1.45;0.03;;;12.70;89.00;;;;;;5017021;28;20054;-69
2020/12/04 09:37:19;;;;;;;1.23;0.00;;;12.80;89.50;;;;;;5016547;28;20357;-68
2020/12/04 09:39:47;;;;;;;1.02;0.00;;;12.20;90.10;;;;;;5014412;28;20050;-69
2020/12/04 09:42:15;;;;;;;0.50;0.10;;;12.30;91.60;;;;;;5020461;28;20045;-68
2020/12/04 09:44:42;;;;;;;0.30;0.03;;;11.80;91.50;;;;;;5035783;28;20040;-69
2020/12/04 09:47:08;;;;;;;0.73;0.00;;;11.50;91.10;;;;;;5036433;28;20044;-68
2020/12/04 09:49:35;;;;;;;1.38;0.15;;;11.40;90.70;;;;;;5036155;28;20119;-68
2020/12/04 09:52:02;;;;;;;1.25;0.10;;;11.40;91.00;;;;;;5053282;28;20405;-69
2020/12/04 09:54:30;;;;;;;1.10;0.10;;;11.00;91.70;;;;;;5056075;28;20583;-69
2020/12/04 09:56:57;;;;;;;1.25;0.10;;;10.40;91.90;;;;;;5055407;28;20037;-69
2020/12/04 09:59:23;;;;;;;0.98;0.10;;;10.30;92.10;;;;;;5055634;28;20068;-69
2020/12/04 10:01:51;;;;;;;3.10;0.85;;;10.90;92.30;;;;;;5055700;28;20033;-69
2020/12/04 10:04:18;;;;;;;1.73;0.50;;;11.10;91.90;;;;;;5055799;28;20037;-69
2020/12/04 10:06:45;;;;;;;3.03;0.73;;;10.50;91.80;;;;;;5048482;28;20072;-69
2020/12/04 10:09:12;;;;;;;1.45;0.20;;;10.20;91.70;;;;;;5037706;28;20041;-69
2020/12/04 10:11:38;;;;;;;2.85;1.10;;;10.90;92.00;;;;;;5035949;28;20049;-69
2020/12/04 10:14:04;;;;;;;9.68;3.30;;;10.00;91.80;;;;;;5036229;28;20099;-69
2020/12/04 10:16:30;;;;;;;4.47;1.05;;;10.00;91.70;;;;;;5035076;28;20095;-69
2020/12/04 10:18:57;;;;;;;5.32;1.73;;;10.30;91.80;;;;;;5035283;28;20037;-69
2020/12/04 10:21:24;;;;;;;2.15;0.50;;;10.10;91.60;;;;;;5040389;28;20045;-68
2020/12/04 10:23:51;;;;;;;12.98;5.25;;;10.10;91.80;;;;;;5036059;28;20076;-68
2020/12/04 10:26:17;;;;;;;2.75;0.82;;;9.90;91.70;;;;;;5035195;28;20029;-69
2020/12/04 10:28:43;;;;;;;2.13;0.40;;;10.40;92.00;;;;;;5035034;28;20047;-69
2020/12/04 10:31:09;;;;;;;2.28;0.47;;;10.20;92.10;;;;;;5035108;28;20080;-69
2020/12/04 10:33:34;;;;;;;1.02;0.73;;;10.40;92.10;;;;;;5035498;28;20130;-69
2020/12/04 10:36:03;;;;;;;2.97;0.77;;;10.50;92.20;;;;;;5035460;28;20041;-69
2020/12/04 10:38:29;;;;;;;2.97;0.40;;;10.20;92.20;;;;;;5035832;28;20045;-69
2020/12/04 10:40:58;;;;;;;1.55;0.40;;;10.30;92.10;;;;;;5035595;28;20044;-69
2020/12/04 10:43:24;;;;;;;3.97;0.20;;;9.90;92.10;;;;;;5034881;28;20045;-69
2020/12/04 10:45:50;;;;;;;1.33;0.10;;;10.80;92.30;;;;;;5035844;28;20091;-69
2020/12/04 10:48:16;;;;;;;0.80;0.10;;;10.30;91.90;;;;;;5035300;28;20084;-69
2020/12/04 10:50:44;;;;;;;1.35;0.10;;;10.30;91.90;;;;;;5035269;28;20069;-68
2020/12/04 10:53:10;;;;;;;0.93;0.00;;;10.60;91.90;;;;;;5035659;28;20477;-69
2020/12/04 10:55:35;;;;;;;2.30;0.20;;;10.20;91.50;;;;;;5034873;28;20049;-69
2020/12/04 10:58:01;;;;;;;1.95;0.00;;;10.60;91.70;;;;;;5044301;28;20048;-69
2020/12/04 11:00:27;;;;;;;0.70;0.00;;;10.40;91.60;;;;;;5055506;28;20118;-69
2020/12/04 11:03:00;;;;;;;1.75;0.10;;;10.30;91.80;;;;;;5054745;28;20493;-69
2020/12/04 11:05:38;;;;;;;2.22;0.10;;;10.50;91.70;;;;;;5054738;28;20041;-69
2020/12/04 11:08:04;;;;;;;1.85;0.10;;;10.50;91.40;;;;;;5054976;28;20045;-69
2020/12/04 11:10:29;;;;;;;1.42;0.10;;;10.10;91.50;;;;;;5054905;28;20033;-69
2020/12/04 11:12:55;;;;;;;3.22;0.10;;;10.40;91.30;;;;;;5054723;28;20052;-69
2020/12/04 11:15:22;;;;;;;1.55;0.10;;;10.30;91.30;;;;;;5054117;28;20033;-69
2020/12/04 11:17:47;;;;;;;1.48;0.10;;;10.50;91.40;;;;;;5054920;28;20041;-68
2020/12/04 11:20:15;;;;;;;2.03;0.10;;;10.70;91.30;;;;;;5055074;28;20098;-69
2020/12/04 11:22:42;;;;;;;1.70;0.10;;;10.70;91.20;;;;;;5054804;28;20131;-68
2020/12/04 11:25:09;;;;;;;0.95;0.20;;;10.60;91.00;;;;;;5054674;28;20037;-68
2020/12/04 11:27:39;;;;;;;0.82;0.20;;;10.20;91.20;;;;;;5028671;28;20049;-69
2020/12/04 11:30:05;;;;;;;2.65;0.93;;;9.90;91.20;;;;;;5014601;28;20042;-69
2020/12/04 11:32:33;;;;;;;2.70;0.30;;;10.20;91.20;;;;;;5014647;28;20087;-68
2020/12/04 11:34:59;;;;;;;2.00;0.20;;;10.40;91.30;;;;;;5013419;28;20069;-68
2020/12/04 11:37:25;;;;;;;2.15;0.20;;;10.40;90.90;;;;;;5012065;28;20065;-68
2020/12/04 11:39:51;;;;;;;1.58;0.28;;;10.10;90.90;;;;;;5013357;28;20096;-69
2020/12/04 11:42:17;;;;;;;3.38;0.43;;;10.40;91.00;;;;;;5014401;28;20052;-69
2020/12/04 11:44:43;;;;;;;2.63;0.73;;;10.80;91.30;;;;;;5013934;28;20118;-69
2020/12/04 11:47:09;;;;;;;3.58;0.40;;;10.30;90.70;;;;;;5036772;28;20124;-68
2020/12/04 11:49:35;;;;;;;3.03;0.22;;;10.60;90.90;;;;;;5038978;28;20479;-69
2020/12/04 11:52:01;;;;;;;1.15;0.20;;;10.70;91.00;;;;;;5038285;28;20477;-69
2020/12/04 11:54:28;;;;;;;2.70;0.20;;;10.50;90.70;;;;;;5039612;28;20053;-69
2020/12/04 11:56:54;;;;;;;3.15;0.47;;;10.10;90.70;;;;;;5039235;28;20044;-69
2020/12/04 11:59:20;;;;;;;3.70;0.63;;;10.40;90.70;;;;;;5042886;28;20040;-69
2020/12/04 12:01:46;;;;;;;2.20;1.30;;;10.30;90.60;;;;;;5043370;28;20060;-69
2020/12/04 12:04:18;;;;;;;3.33;1.30;;;10.60;90.60;;;;;;5038617;28;20535;-69
2020/12/04 12:06:44;;;;;;;2.47;0.20;;;10.80;90.60;;;;;;5034410;28;20044;-69
2020/12/04 12:09:10;;;;;;;2.60;0.00;;;11.10;90.50;;;;;;5033305;28;20033;-68
2020/12/04 12:11:36;;;;;;;1.30;0.20;;;10.30;90.20;;;;;;5031964;28;20045;-69
2020/12/04 12:14:02;;;;;;;2.55;0.28;;;10.40;90.10;;;;;;5031475;28;20117;-69
2020/12/04 12:16:28;;;;;;;1.58;0.25;;;10.70;90.20;;;;;;5031725;28;20404;-68
2020/12/04 12:18:53;;;;;;;2.75;0.50;;;11.30;90.00;;;;;;5032037;28;20033;-69
2020/12/04 12:21:19;;;;;;;2.95;0.30;;;10.90;90.00;;;;;;5031727;28;20519;-69
2020/12/04 12:23:45;;;;;;;1.83;0.30;;;11.10;90.00;;;;;;5031897;28;20045;-69
2020/12/04 12:26:12;;;;;;;0.93;0.13;;;11.20;89.60;;;;;;5031226;28;20084;-69
2020/12/04 12:28:39;;;;;;;2.00;0.30;;;10.90;89.60;;;;;;5033080;28;20041;-69
2020/12/04 12:31:05;;;;;;;2.08;0.40;;;11.20;89.50;;;;;;5033699;28;20029;-69
2020/12/04 12:33:31;;;;;;;2.38;0.10;;;10.80;88.90;;;;;;5033986;28;20057;-69
2020/12/04 12:35:57;;;;;;;1.20;0.30;;;10.60;88.10;;;;;;5034176;28;20420;-69
2020/12/04 12:38:23;;;;;;;2.03;0.20;;;11.30;88.80;;;;;;5033477;28;20124;-69
2020/12/04 12:40:49;;;;;;;1.65;0.13;;;11.00;88.30;;;;;;5033751;28;20065;-69
2020/12/04 12:43:16;;;;;;;1.55;0.10;;;11.10;88.90;;;;;;5033528;28;20037;-69
2020/12/04 12:45:42;;;;;;;1.60;0.10;;;11.50;89.50;;;;;;5033166;28;20401;-69
2020/12/04 12:48:08;;;;;;;1.65;0.32;;;10.90;87.90;;;;;;5033405;28;20040;-69
2020/12/04 12:50:34;;;;;;;3.42;0.30;;;10.90;88.90;;;;;;5033437;28;20124;-69
2020/12/04 12:53:00;;;;;;;2.50;0.65;;;10.80;88.20;;;;;;5033273;28;20045;-69
2020/12/04 12:55:25;;;;;;;2.65;0.40;;;10.80;88.50;;;;;;5033256;28;20578;-69
2020/12/04 12:57:52;;;;;;;3.53;0.32;;;10.80;88.60;;;;;;5033309;28;20072;-69
2020/12/04 13:00:18;;;;;;;2.20;0.73;;;10.40;88.20;;;;;;5033338;28;20037;-69